sensor_id;sensor_type;location;lat;lon;timestamp;pressure;altitude;pressure_sealevel;temperature;humidity
18749;BME280;9503;53.560;10.246;2023-02-20T07:02:30;100800.06;;;8.03;100.00
18749;BME280;9503;53.560;10.246;2023-02-20T07:04:58;100801.06;;;7.92;100.00
18749;BME280;9503;53.560;10.246;2023-02-20T07:07:25;100801.06;;;8.35;100.00
18749;BME280;9503;53.560;10.246;2023-02-20T07:09:51;100803.41;;;8.60;100.00
18749;BME280;9503;53.560;10.246;2023-02-20T07:12:18;100805.47;;;8.52;100.00
18749;BME280;9503;53.560;10.246;2023-02-20T07:14:45;100821.16;;;8.43;100.00
18749;BME280;9503;53.560;10.246;2023-02-20T07:17:11;100817.06;;;8.60;100.00
18749;BME280;9503;53.560;10.246;2023-02-20T07:19:39;100816.22;;;8.91;100.00
18749;BME280;9503;53.560;10.246;2023-02-20T07:22:06;100816.25;;;8.61;100.00
18749;BME280;9503;53.560;10.246;2023-02-20T07:24:34;100822.47;;;8.81;100.00
18749;BME280;9503;53.560;10.246;2023-02-20T07:27:01;100771.28;;;8.20;100.00
18749;BME280;9503;53.560;10.246;2023-02-20T07:29:28;100815.00;;;8.54;100.00
18749;BME280;9503;53.560;10.246;2023-02-20T07:31:54;100814.50;;;8.60;100.00
18749;BME280;9503;53.560;10.246;2023-02-20T07:34:21;100810.94;;;8.43;100.00
18749;BME280;9503;53.560;10.246;2023-02-20T07:36:49;100811.81;;;8.58;100.00
18749;BME280;9503;53.560;10.246;2023-02-20T07:39:16;100811.91;;;8.30;100.00
18749;BME280;9503;53.560;10.246;2023-02-20T07:41:42;100793.50;;;8.51;100.00
18749;BME280;9503;53.560;10.246;2023-02-20T07:44:09;100801.78;;;8.76;100.00
18749;BME280;9503;53.560;10.246;2023-02-20T07:46:37;100794.19;;;8.34;100.00
18749;BME280;9503;53.560;10.246;2023-02-20T07:49:04;100794.44;;;8.09;100.00
18749;BME280;9503;53.560;10.246;2023-02-20T07:51:31;100784.75;;;8.32;100.00
18749;BME280;9503;53.560;10.246;2023-02-20T07:53:59;100782.97;;;8.45;100.00
18749;BME280;9503;53.560;10.246;2023-02-20T07:56:26;100794.25;;;8.20;100.00
18749;BME280;9503;53.560;10.246;2023-02-20T07:58:53;100776.72;;;8.12;100.00
18749;BME280;9503;53.560;10.246;2023-02-20T08:01:20;100777.81;;;8.15;100.00
18749;BME280;9503;53.560;10.246;2023-02-20T08:03:46;100767.97;;;8.36;100.00
18749;BME280;9503;53.560;10.246;2023-02-20T08:06:16;100772.06;;;8.34;100.00
18749;BME280;9503;53.560;10.246;2023-02-20T08:08:46;100776.41;;;8.50;100.00
18749;BME280;9503;53.560;10.246;2023-02-20T08:11:14;100782.41;;;8.50;100.00
18749;BME280;9503;53.560;10.246;2023-02-20T08:13:41;100770.66;;;8.24;100.00
18749;BME280;9503;53.560;10.246;2023-02-20T08:16:08;100763.53;;;8.34;100.00
18749;BME280;9503;53.560;10.246;2023-02-20T08:18:35;100753.41;;;8.20;100.00
18749;BME280;9503;53.560;10.246;2023-02-20T08:21:02;100767.63;;;8.60;100.00
18749;BME280;9503;53.560;10.246;2023-02-20T08:23:28;100777.09;;;8.77;100.00
18749;BME280;9503;53.560;10.246;2023-02-20T08:25:55;100755.91;;;8.94;100.00
18749;BME280;9503;53.560;10.246;2023-02-20T08:28:23;100755.97;;;8.65;100.00
18749;BME280;9503;53.560;10.246;2023-02-20T08:30:50;100749.56;;;8.88;100.00
18749;BME280;9503;53.560;10.246;2023-02-20T08:33:17;100745.53;;;8.76;100.00
18749;BME280;9503;53.560;10.246;2023-02-20T08:35:44;100741.38;;;8.78;100.00
18749;BME280;9503;53.560;10.246;2023-02-20T08:38:24;100741.72;;;8.53;100.00
18749;BME280;9503;53.560;10.246;2023-02-20T08:40:51;100722.53;;;8.45;100.00
18749;BME280;9503;53.560;10.246;2023-02-20T08:43:17;100718.44;;;8.49;100.00
18749;BME280;9503;53.560;10.246;2023-02-20T08:45:45;100722.56;;;8.62;100.00
18749;BME280;9503;53.560;10.246;2023-02-20T08:48:12;100723.25;;;8.59;100.00
18749;BME280;9503;53.560;10.246;2023-02-20T08:50:39;100723.59;;;8.65;100.00
18749;BME280;9503;53.560;10.246;2023-02-20T08:53:06;100726.59;;;8.73;100.00
18749;BME280;9503;53.560;10.246;2023-02-20T08:55:32;100710.56;;;8.75;100.00
18749;BME280;9503;53.560;10.246;2023-02-20T08:57:59;100717.91;;;8.54;100.00
18749;BME280;9503;53.560;10.246;2023-02-20T09:00:25;100713.34;;;8.80;100.00
18749;BME280;9503;53.560;10.246;2023-02-20T09:02:53;100702.94;;;8.61;100.00
18749;BME280;9503;53.560;10.246;2023-02-20T09:05:20;100700.47;;;8.62;100.00
18749;BME280;9503;53.560;10.246;2023-02-20T09:07:48;100701.00;;;8.56;100.00
18749;BME280;9503;53.560;10.246;2023-02-20T09:10:16;100688.13;;;8.55;100.00
18749;BME280;9503;53.560;10.246;2023-02-20T09:12:43;100671.19;;;8.57;100.00
18749;BME280;9503;53.560;10.246;2023-02-20T09:15:09;100671.78;;;8.99;100.00
18749;BME280;9503;53.560;10.246;2023-02-20T09:17:36;100670.28;;;8.71;100.00
18749;BME280;9503;53.560;10.246;2023-02-20T09:20:05;100663.97;;;8.81;100.00
18749;BME280;9503;53.560;10.246;2023-02-20T09:22:34;100663.09;;;8.80;100.00
18749;BME280;9503;53.560;10.246;2023-02-20T09:25:01;100663.75;;;8.76;100.00
18749;BME280;9503;53.560;10.246;2023-02-20T09:27:29;100653.50;;;8.60;100.00
18749;BME280;9503;53.560;10.246;2023-02-20T09:29:56;100650.72;;;8.72;100.00
18749;BME280;9503;53.560;10.246;2023-02-20T09:32:23;100658.72;;;8.78;100.00
18749;BME280;9503;53.560;10.246;2023-02-20T09:34:51;100664.03;;;8.97;100.00
18749;BME280;9503;53.560;10.246;2023-02-20T09:37:33;100656.66;;;8.87;100.00
18749;BME280;9503;53.560;10.246;2023-02-20T09:40:06;100668.81;;;9.07;100.00
18749;BME280;9503;53.560;10.246;2023-02-20T09:42:39;100669.19;;;8.82;100.00
18749;BME280;9503;53.560;10.246;2023-02-20T09:45:10;100660.97;;;8.88;100.00
18749;BME280;9503;53.560;10.246;2023-02-20T09:50:37;100651.00;;;8.93;100.00
18749;BME280;9503;53.560;10.246;2023-02-20T09:53:23;100643.47;;;8.96;100.00
18749;BME280;9503;53.560;10.246;2023-02-20T09:55:54;100650.03;;;9.07;100.00
18749;BME280;9503;53.560;10.246;2023-02-20T09:58:26;100646.75;;;9.09;100.00
18749;BME280;9503;53.560;10.246;2023-02-20T10:00:57;100620.63;;;8.82;100.00
18749;BME280;9503;53.560;10.246;2023-02-20T10:03:31;100627.66;;;9.03;100.00
18749;BME280;9503;53.560;10.246;2023-02-20T10:06:03;100620.16;;;9.06;100.00
18749;BME280;9503;53.560;10.246;2023-02-20T10:08:44;100632.53;;;9.31;100.00
18749;BME280;9503;53.560;10.246;2023-02-20T10:11:26;100620.00;;;9.19;100.00
18749;BME280;9503;53.560;10.246;2023-02-20T10:14:10;100627.19;;;9.26;100.00
18749;BME280;9503;53.560;10.246;2023-02-20T10:16:45;100633.69;;;9.03;100.00
18749;BME280;9503;53.560;10.246;2023-02-20T10:19:19;100631.47;;;9.44;100.00
18749;BME280;9503;53.560;10.246;2023-02-20T10:21:55;100628.69;;;9.23;100.00
18749;BME280;9503;53.560;10.246;2023-02-20T10:24:40;100629.56;;;9.39;100.00
18749;BME280;9503;53.560;10.246;2023-02-20T10:27:21;100632.78;;;9.35;100.00
18749;BME280;9503;53.560;10.246;2023-02-20T10:29:51;100639.09;;;9.42;100.00
18749;BME280;9503;53.560;10.246;2023-02-20T10:32:22;100628.94;;;9.44;100.00
18749;BME280;9503;53.560;10.246;2023-02-20T10:34:57;100630.63;;;9.61;100.00
18749;BME280;9503;53.560;10.246;2023-02-20T10:37:28;100628.06;;;9.77;100.00
18749;BME280;9503;53.560;10.246;2023-02-20T10:40:06;100626.50;;;9.47;100.00
18749;BME280;9503;53.560;10.246;2023-02-20T10:42:36;100632.72;;;9.68;100.00
18749;BME280;9503;53.560;10.246;2023-02-20T10:45:09;100621.25;;;9.78;100.00
18749;BME280;9503;53.560;10.246;2023-02-20T10:47:46;100619.34;;;9.91;100.00
18749;BME280;9503;53.560;10.246;2023-02-20T10:50:18;100617.91;;;9.96;100.00
18749;BME280;9503;53.560;10.246;2023-02-20T10:52:51;100613.66;;;9.79;100.00
18749;BME280;9503;53.560;10.246;2023-02-20T10:55:25;100614.66;;;9.83;100.00
18749;BME280;9503;53.560;10.246;2023-02-20T10:57:57;100608.78;;;10.37;100.00
18749;BME280;9503;53.560;10.246;2023-02-20T11:00:35;100628.53;;;10.22;100.00
18749;BME280;9503;53.560;10.246;2023-02-20T11:03:06;100627.50;;;10.01;100.00
18749;BME280;9503;53.560;10.246;2023-02-20T11:05:39;100643.44;;;10.29;100.00
18749;BME280;9503;53.560;10.246;2023-02-20T11:08:07;100624.63;;;10.29;100.00
18749;BME280;9503;53.560;10.246;2023-02-20T11:10:35;100635.44;;;10.41;100.00
18749;BME280;9503;53.560;10.246;2023-02-20T11:13:03;100614.25;;;10.09;100.00
18749;BME280;9503;53.560;10.246;2023-02-20T11:15:35;100622.25;;;10.51;100.00
18749;BME280;9503;53.560;10.246;2023-02-20T11:18:15;100630.53;;;10.45;100.00
18749;BME280;9503;53.560;10.246;2023-02-20T11:20:45;100622.84;;;10.45;100.00
18749;BME280;9503;53.560;10.246;2023-02-20T11:23:40;100622.41;;;10.36;100.00
18749;BME280;9503;53.560;10.246;2023-02-20T11:26:30;100618.81;;;10.50;100.00
18749;BME280;9503;53.560;10.246;2023-02-20T11:29:02;100631.59;;;10.68;100.00
18749;BME280;9503;53.560;10.246;2023-02-20T11:31:31;100628.72;;;10.80;100.00
18749;BME280;9503;53.560;10.246;2023-02-20T11:34:00;100631.66;;;10.70;100.00
18749;BME280;9503;53.560;10.246;2023-02-20T11:36:31;100620.94;;;10.78;100.00
18749;BME280;9503;53.560;10.246;2023-02-20T11:39:02;100612.38;;;10.78;100.00
18749;BME280;9503;53.560;10.246;2023-02-20T11:41:34;100629.03;;;10.68;100.00
18749;BME280;9503;53.560;10.246;2023-02-20T11:44:16;100625.97;;;10.95;100.00
18749;BME280;9503;53.560;10.246;2023-02-20T11:46:44;100607.06;;;10.93;100.00
18749;BME280;9503;53.560;10.246;2023-02-20T11:49:24;100615.84;;;10.98;100.00
18749;BME280;9503;53.560;10.246;2023-02-20T11:51:51;100587.34;;;11.11;100.00
18749;BME280;9503;53.560;10.246;2023-02-20T11:54:20;100595.38;;;11.19;100.00
18749;BME280;9503;53.560;10.246;2023-02-20T11:56:58;100600.03;;;11.27;100.00
18749;BME280;9503;53.560;10.246;2023-02-20T11:59:29;100579.44;;;11.06;100.00
18749;BME280;9503;53.560;10.246;2023-02-20T12:05:04;100590.16;;;11.37;100.00
18749;BME280;9503;53.560;10.246;2023-02-20T12:07:34;100573.56;;;11.49;100.00
18749;BME280;9503;53.560;10.246;2023-02-20T12:10:10;100570.94;;;11.07;100.00
18749;BME280;9503;53.560;10.246;2023-02-20T12:12:44;100570.66;;;11.01;100.00
18749;BME280;9503;53.560;10.246;2023-02-20T12:15:17;100577.25;;;10.95;100.00
18749;BME280;9503;53.560;10.246;2023-02-20T12:18:24;100564.66;;;11.01;100.00
18749;BME280;9503;53.560;10.246;2023-02-20T12:21:07;100562.19;;;11.02;100.00
18749;BME280;9503;53.560;10.246;2023-02-20T12:23:45;100574.25;;;11.05;100.00
18749;BME280;9503;53.560;10.246;2023-02-20T12:26:24;100550.44;;;11.28;100.00
18749;BME280;9503;53.560;10.246;2023-02-20T12:29:00;100541.31;;;10.95;100.00
18749;BME280;9503;53.560;10.246;2023-02-20T12:31:50;100554.66;;;11.26;100.00
18749;BME280;9503;53.560;10.246;2023-02-20T12:37:20;100542.66;;;11.06;100.00
18749;BME280;9503;53.560;10.246;2023-02-20T12:40:02;100537.44;;;11.24;100.00
18749;BME280;9503;53.560;10.246;2023-02-20T12:42:40;100543.88;;;11.35;100.00
18749;BME280;9503;53.560;10.246;2023-02-20T12:45:22;100545.25;;;11.27;100.00
18749;BME280;9503;53.560;10.246;2023-02-20T12:48:03;100540.72;;;11.41;100.00
18749;BME280;9503;53.560;10.246;2023-02-20T12:50:40;100523.72;;;11.23;100.00
18749;BME280;9503;53.560;10.246;2023-02-20T12:53:29;100518.69;;;11.46;100.00
18749;BME280;9503;53.560;10.246;2023-02-20T12:56:19;100522.72;;;11.20;100.00
18749;BME280;9503;53.560;10.246;2023-02-20T12:58:54;100531.78;;;11.12;100.00
18749;BME280;9503;53.560;10.246;2023-02-20T13:01:29;100538.97;;;11.40;100.00
18749;BME280;9503;53.560;10.246;2023-02-20T13:04:01;100532.31;;;11.24;100.00
18749;BME280;9503;53.560;10.246;2023-02-20T13:06:39;100527.81;;;11.39;100.00
18749;BME280;9503;53.560;10.246;2023-02-20T13:09:19;100517.41;;;11.36;100.00
18749;BME280;9503;53.560;10.246;2023-02-20T13:11:49;100526.03;;;11.38;100.00
18749;BME280;9503;53.560;10.246;2023-02-20T13:14:34;100541.13;;;11.51;100.00
18749;BME280;9503;53.560;10.246;2023-02-20T13:17:17;100528.06;;;11.24;100.00
18749;BME280;9503;53.560;10.246;2023-02-20T13:19:53;100525.53;;;11.26;100.00
18749;BME280;9503;53.560;10.246;2023-02-20T13:22:22;100533.19;;;11.45;100.00
18749;BME280;9503;53.560;10.246;2023-02-20T13:24:49;100522.38;;;11.31;100.00
18749;BME280;9503;53.560;10.246;2023-02-20T13:27:27;100532.53;;;11.30;100.00
18749;BME280;9503;53.560;10.246;2023-02-20T13:29:56;100535.06;;;11.49;100.00
18749;BME280;9503;53.560;10.246;2023-02-20T13:32:27;100536.19;;;11.35;100.00
18749;BME280;9503;53.560;10.246;2023-02-20T13:35:37;100541.13;;;11.30;100.00
18749;BME280;9503;53.560;10.246;2023-02-20T13:38:13;100550.22;;;11.43;100.00
18749;BME280;9503;53.560;10.246;2023-02-20T13:40:42;100540.81;;;11.44;100.00
18749;BME280;9503;53.560;10.246;2023-02-20T13:43:33;100545.84;;;11.41;100.00
18749;BME280;9503;53.560;10.246;2023-02-20T13:46:17;100540.06;;;11.67;100.00
18749;BME280;9503;53.560;10.246;2023-02-20T13:48:52;100547.47;;;11.59;100.00
18749;BME280;9503;53.560;10.246;2023-02-20T13:51:36;100530.84;;;11.30;100.00
18749;BME280;9503;53.560;10.246;2023-02-20T13:54:14;100549.16;;;11.59;100.00
18749;BME280;9503;53.560;10.246;2023-02-20T13:56:47;100537.44;;;11.45;100.00
18749;BME280;9503;53.560;10.246;2023-02-20T13:59:17;100500.06;;;11.30;100.00
18749;BME280;9503;53.560;10.246;2023-02-20T14:04:52;100517.16;;;11.51;100.00
18749;BME280;9503;53.560;10.246;2023-02-20T14:07:27;100534.28;;;11.31;100.00
18749;BME280;9503;53.560;10.246;2023-02-20T14:10:03;100526.81;;;11.56;100.00
18749;BME280;9503;53.560;10.246;2023-02-20T14:12:32;100526.91;;;11.59;100.00
18749;BME280;9503;53.560;10.246;2023-02-20T14:15:02;100525.78;;;11.53;100.00
18749;BME280;9503;53.560;10.246;2023-02-20T14:17:30;100528.28;;;11.72;100.00
18749;BME280;9503;53.560;10.246;2023-02-20T14:19:59;100533.94;;;11.63;100.00
18749;BME280;9503;53.560;10.246;2023-02-20T14:22:30;100527.06;;;11.62;100.00
18749;BME280;9503;53.560;10.246;2023-02-20T14:25:31;100533.81;;;11.81;100.00
18749;BME280;9503;53.560;10.246;2023-02-20T14:28:11;100529.75;;;11.66;100.00
18749;BME280;9503;53.560;10.246;2023-02-20T14:30:39;100529.94;;;11.70;100.00
18749;BME280;9503;53.560;10.246;2023-02-20T14:33:19;100529.97;;;11.30;100.00
18749;BME280;9503;53.560;10.246;2023-02-20T14:35:54;100521.66;;;11.56;100.00
18749;BME280;9503;53.560;10.246;2023-02-20T14:38:33;100530.19;;;11.55;100.00
18749;BME280;9503;53.560;10.246;2023-02-20T14:41:12;100541.66;;;11.63;100.00
18749;BME280;9503;53.560;10.246;2023-02-20T14:43:53;100527.31;;;11.48;100.00
18749;BME280;9503;53.560;10.246;2023-02-20T14:46:23;100529.69;;;11.43;100.00
18749;BME280;9503;53.560;10.246;2023-02-20T14:49:04;100523.63;;;11.83;100.00
18749;BME280;9503;53.560;10.246;2023-02-20T14:51:37;100518.13;;;11.13;100.00
18749;BME280;9503;53.560;10.246;2023-02-20T14:54:16;100519.13;;;11.16;100.00
18749;BME280;9503;53.560;10.246;2023-02-20T14:56:46;100531.22;;;11.19;100.00
18749;BME280;9503;53.560;10.246;2023-02-20T14:59:33;100532.44;;;11.48;100.00
18749;BME280;9503;53.560;10.246;2023-02-20T15:02:14;100523.81;;;11.05;100.00
18749;BME280;9503;53.560;10.246;2023-02-20T15:04:46;100531.59;;;11.28;100.00
18749;BME280;9503;53.560;10.246;2023-02-20T15:07:15;100529.91;;;11.28;100.00
18749;BME280;9503;53.560;10.246;2023-02-20T15:09:45;100532.72;;;11.14;100.00
18749;BME280;9503;53.560;10.246;2023-02-20T15:12:19;100532.44;;;11.27;100.00
18749;BME280;9503;53.560;10.246;2023-02-20T15:14:52;100533.91;;;11.22;100.00
18749;BME280;9503;53.560;10.246;2023-02-20T15:17:22;100542.91;;;11.31;100.00
18749;BME280;9503;53.560;10.246;2023-02-20T15:19:49;100540.91;;;11.05;100.00
18749;BME280;9503;53.560;10.246;2023-02-20T15:22:27;100532.66;;;11.12;100.00
18749;BME280;9503;53.560;10.246;2023-02-20T15:25:10;100526.66;;;10.92;100.00
18749;BME280;9503;53.560;10.246;2023-02-20T15:27:37;100530.69;;;11.06;100.00
18749;BME280;9503;53.560;10.246;2023-02-20T15:30:10;100528.94;;;11.05;100.00
18749;BME280;9503;53.560;10.246;2023-02-20T15:32:39;100534.34;;;10.92;100.00
18749;BME280;9503;53.560;10.246;2023-02-20T15:35:13;100539.16;;;11.04;100.00
18749;BME280;9503;53.560;10.246;2023-02-20T15:37:41;100535.09;;;11.09;100.00
18749;BME280;9503;53.560;10.246;2023-02-20T15:40:16;100534.19;;;10.88;100.00
18749;BME280;9503;53.560;10.246;2023-02-20T15:42:43;100526.38;;;10.86;100.00
18749;BME280;9503;53.560;10.246;2023-02-20T15:45:11;100523.75;;;10.85;100.00
18749;BME280;9503;53.560;10.246;2023-02-20T15:47:38;100523.59;;;10.80;100.00
18749;BME280;9503;53.560;10.246;2023-02-20T15:50:05;100522.56;;;10.96;100.00
18749;BME280;9503;53.560;10.246;2023-02-20T15:52:31;100522.88;;;11.03;100.00
18749;BME280;9503;53.560;10.246;2023-02-20T15:55:00;100526.00;;;10.96;100.00
18749;BME280;9503;53.560;10.246;2023-02-20T15:57:27;100520.06;;;10.97;100.00
18749;BME280;9503;53.560;10.246;2023-02-20T15:59:54;100535.09;;;11.09;100.00
18749;BME280;9503;53.560;10.246;2023-02-20T16:02:21;100538.06;;;10.99;100.00
18749;BME280;9503;53.560;10.246;2023-02-20T16:04:49;100523.81;;;11.05;100.00
18749;BME280;9503;53.560;10.246;2023-02-20T16:07:18;100512.28;;;10.96;100.00
18749;BME280;9503;53.560;10.246;2023-02-20T16:09:45;100517.97;;;10.89;100.00
18749;BME280;9503;53.560;10.246;2023-02-20T16:12:16;100516.06;;;10.85;100.00
18749;BME280;9503;53.560;10.246;2023-02-20T16:14:44;100530.19;;;10.94;100.00
18749;BME280;9503;53.560;10.246;2023-02-20T16:17:16;100520.66;;;11.11;100.00
18749;BME280;9503;53.560;10.246;2023-02-20T16:19:45;100514.44;;;10.87;100.00
18749;BME280;9503;53.560;10.246;2023-02-20T16:22:12;100509.13;;;10.82;100.00
18749;BME280;9503;53.560;10.246;2023-02-20T16:24:38;100522.50;;;10.75;100.00
18749;BME280;9503;53.560;10.246;2023-02-20T16:27:09;100524.84;;;10.90;100.00
18749;BME280;9503;53.560;10.246;2023-02-20T16:29:41;100528.41;;;11.13;100.00
18749;BME280;9503;53.560;10.246;2023-02-20T16:32:14;100513.88;;;11.13;100.00
18749;BME280;9503;53.560;10.246;2023-02-20T16:34:41;100519.78;;;11.11;100.00
18749;BME280;9503;53.560;10.246;2023-02-20T16:37:09;100518.38;;;10.78;100.00
18749;BME280;9503;53.560;10.246;2023-02-20T16:39:36;100522.22;;;10.88;100.00
18749;BME280;9503;53.560;10.246;2023-02-20T16:42:15;100522.63;;;10.97;100.00
18749;BME280;9503;53.560;10.246;2023-02-20T16:44:46;100514.53;;;10.88;100.00
18749;BME280;9503;53.560;10.246;2023-02-20T16:47:15;100526.53;;;10.70;100.00
18749;BME280;9503;53.560;10.246;2023-02-20T16:49:42;100531.44;;;11.04;100.00
18749;BME280;9503;53.560;10.246;2023-02-20T16:52:12;100534.97;;;10.87;100.00
18749;BME280;9503;53.560;10.246;2023-02-20T16:54:42;100519.56;;;10.87;100.00
18749;BME280;9503;53.560;10.246;2023-02-20T16:57:09;100533.41;;;11.10;100.00
18749;BME280;9503;53.560;10.246;2023-02-20T16:59:35;100534.97;;;10.87;100.00
18749;BME280;9503;53.560;10.246;2023-02-20T17:02:03;100534.09;;;10.86;100.00
18749;BME280;9503;53.560;10.246;2023-02-20T17:04:30;100533.47;;;10.92;100.00
18749;BME280;9503;53.560;10.246;2023-02-20T17:06:57;100529.63;;;11.01;100.00
18749;BME280;9503;53.560;10.246;2023-02-20T17:09:23;100536.25;;;10.96;100.00
18749;BME280;9503;53.560;10.246;2023-02-20T17:11:50;100539.63;;;10.95;100.00
18749;BME280;9503;53.560;10.246;2023-02-20T17:14:16;100545.50;;;10.54;100.00
18749;BME280;9503;53.560;10.246;2023-02-20T17:16:46;100548.47;;;10.83;100.00
18749;BME280;9503;53.560;10.246;2023-02-20T17:19:15;100553.44;;;11.18;100.00
18749;BME280;9503;53.560;10.246;2023-02-20T17:21:46;100549.50;;;10.67;100.00
18749;BME280;9503;53.560;10.246;2023-02-20T17:24:12;100555.47;;;10.87;100.00
18749;BME280;9503;53.560;10.246;2023-02-20T17:26:39;100574.06;;;10.81;100.00
18749;BME280;9503;53.560;10.246;2023-02-20T17:29:06;100563.22;;;11.07;100.00
18749;BME280;9503;53.560;10.246;2023-02-20T17:31:32;100572.97;;;10.76;100.00
18749;BME280;9503;53.560;10.246;2023-02-20T17:33:59;100583.44;;;10.81;100.00
18749;BME280;9503;53.560;10.246;2023-02-20T17:36:27;100570.53;;;10.98;100.00
18749;BME280;9503;53.560;10.246;2023-02-20T17:38:53;100567.97;;;10.79;100.00
18749;BME280;9503;53.560;10.246;2023-02-20T17:41:21;100574.91;;;11.01;100.00
18749;BME280;9503;53.560;10.246;2023-02-20T17:43:48;100573.38;;;11.24;100.00
18749;BME280;9503;53.560;10.246;2023-02-20T17:46:15;100559.59;;;10.83;100.00
18749;BME280;9503;53.560;10.246;2023-02-20T17:48:42;100572.50;;;10.85;100.00
18749;BME280;9503;53.560;10.246;2023-02-20T17:51:08;100567.84;;;10.76;100.00
18749;BME280;9503;53.560;10.246;2023-02-20T17:53:36;100570.81;;;11.04;100.00
18749;BME280;9503;53.560;10.246;2023-02-20T17:56:03;100559.00;;;10.89;100.00
18749;BME280;9503;53.560;10.246;2023-02-20T17:58:30;100569.13;;;11.05;100.00
